createdAt,value
2022-08-08T00:04:16.169Z,66
2022-08-08T00:14:47.917Z,67
2022-08-08T00:34:22.482Z,68
2022-08-08T00:44:24.711Z,69
2022-08-08T00:54:28.858Z,70
2022-08-08T01:24:33.754Z,73
2022-08-08T01:34:35.919Z,74
2022-08-08T01:44:37.736Z,74
2022-08-08T01:55:18.668Z,75
2022-08-08T02:04:42.986Z,76
2022-08-08T02:14:50.214Z,77
2022-08-08T02:24:46.612Z,78
2022-08-08T02:34:49.795Z,79
2022-08-08T02:44:57.711Z,80
2022-08-08T02:54:52.324Z,81
2022-08-08T03:35:01.297Z,84
2022-08-08T03:46:03.680Z,85
2022-08-08T04:15:09.612Z,87
2022-08-08T04:25:13.046Z,88
2022-08-08T04:35:13.602Z,89
2022-08-08T04:45:15.962Z,89
2022-08-08T04:55:17.839Z,89
2022-08-08T05:05:20.582Z,88
2022-08-08T05:15:22.447Z,86
2022-08-08T05:35:26.923Z,81
2022-08-08T05:45:31.486Z,79
2022-08-08T05:55:31.100Z,78
2022-08-08T06:15:50.299Z,73
2022-08-08T06:26:35.610Z,71
2022-08-08T06:36:04.993Z,70
2022-08-08T06:45:41.746Z,70
2022-08-08T06:55:43.584Z,68
2022-08-08T07:05:45.542Z,67
2022-08-08T07:16:05.554Z,65
2022-08-08T07:25:54.301Z,63
2022-08-08T07:35:54.453Z,61
2022-08-08T07:46:06.066Z,58
2022-08-08T07:55:55.581Z,56
2022-08-08T08:05:57.320Z,55
2022-08-08T08:15:59.641Z,53
2022-08-08T08:26:01.558Z,51
2022-08-08T08:36:18.065Z,50
2022-08-08T08:46:05.902Z,48
2022-08-08T08:56:18.164Z,46
2022-08-08T09:06:26.984Z,45
2022-08-08T09:16:22.332Z,45
2022-08-08T09:26:24.578Z,43
2022-08-08T09:36:27.104Z,41
2022-08-08T09:46:30.928Z,39
2022-08-08T09:56:31.235Z,39
2022-08-08T10:06:35.776Z,38
2022-08-08T10:16:35.523Z,39
2022-08-08T10:26:51.850Z,38
2022-08-08T10:36:40.291Z,37
2022-08-08T10:46:42.041Z,36
2022-08-08T10:56:43.912Z,36
2022-08-08T11:06:47.243Z,36
2022-08-08T11:16:48.113Z,37
2022-08-08T11:26:54.027Z,37
2022-08-08T11:36:52.437Z,37
2022-08-08T11:46:54.550Z,37
2022-08-08T11:56:57.716Z,36
2022-08-08T12:06:59.812Z,36
2022-08-08T12:17:01.967Z,35
2022-08-08T12:27:04.331Z,36
2022-08-08T12:47:08.287Z,37
2022-08-08T13:17:54.515Z,35
2022-08-08T13:27:16.408Z,35
2022-08-08T13:37:19.670Z,35
2022-08-08T13:47:20.174Z,34
2022-08-08T13:57:46.576Z,34
2022-08-08T14:07:24.926Z,34
2022-08-08T14:17:36.547Z,33
2022-08-08T14:27:30.081Z,33
2022-08-08T14:37:42.639Z,33
2022-08-08T14:47:36.057Z,34
2022-08-08T14:58:02.361Z,35
2022-08-08T15:07:39.835Z,35
2022-08-08T15:17:41.103Z,36
2022-08-08T15:27:58.573Z,35
2022-08-08T15:37:45.595Z,37
2022-08-08T15:57:50.726Z,36
2022-08-08T16:07:54.063Z,37
2022-08-08T16:17:57.950Z,37
2022-08-08T16:37:59.394Z,38
2022-08-08T16:48:01.857Z,38
2022-08-08T16:58:13.667Z,39
2022-08-08T17:08:06.177Z,39
2022-08-08T17:18:12.013Z,39
2022-08-08T17:28:11.615Z,39
2022-08-08T17:38:12.994Z,40
2022-08-08T17:48:29.089Z,40
2022-08-08T17:58:16.931Z,40
2022-08-08T18:08:24.395Z,41
2022-08-08T18:18:28.130Z,41
2022-08-08T18:58:31.296Z,44
2022-08-08T21:19:01.055Z,57
2022-08-08T23:19:26.959Z,68
